Details From KTPF - Peter O Knight
To KBCT - Boca Raton
Flight Number -
Tags Generated
Created
Modified
Stats Distance 156 nm / 288 km
Max Altitude 0 ft / 0 m
Waypoints 2
Social Downloads 0
Likes 0
Share VATSIM

Download

Looking for another format? Having issues loading an existing format? Contact us
Advertisement - Login to hide

Notes

Generated

Route

KTPF KBCT

ID Type Via Altitude Latitude Longitude Leg Dist Tot Dist Heading (true) Name
O KTPF APT - 0 ft / 0 m 27.91996˚ -82.44812˚ - 0 nm - Peter O Knight
O KBCT APT - 0 ft / 0 m 26.37231˚ -80.11439˚ 155 nm 155 nm 126° / 127° -

Altitude Profile

Advertisement - Login to hide

KTPF

Details ICAO KTPF
Name Peter O Knight
Region United States
Timezone America/New_York (UTC-5.0)
Stats Elevation 8 ft / 2 m (AMSL)
Location 27.915655° -82.449097°
Runways 2
Magnetic Variation 5.602° W

METAR

KTPF 170415Z AUTO 07004KT 10SM 16/13 A3026 RMK AO2

Decode

TAF

Not found

Departure Runways

ID Width Length Bearing (true) Bearing (mag) Surface Threshold Offset Overrun Length
03 100 ft / 30 m 3,411 ft / 1,040 m 36.82° 42.42° Asphalt 0 ft / 0 m 0 ft / 0 m
17 75 ft / 23 m 2,697 ft / 822 m 173.06° 178.66° Asphalt 200 ft / 61 m 0 ft / 0 m
21 100 ft / 30 m 3,411 ft / 1,040 m 216.82° 222.42° Asphalt 0 ft / 0 m 0 ft / 0 m
35 75 ft / 23 m 2,697 ft / 822 m 353.06° 358.66° Asphalt 200 ft / 61 m 0 ft / 0 m

KBCT

Details ICAO KBCT (BCT)
Name Boca Raton
Region United States
Timezone America/New_York (UTC-5.0)
Stats Elevation 13 ft / 4 m (AMSL)
Location 26.378484° -80.107696°
Runways 1
Magnetic Variation 6.841° W

METAR

KBCT 170353Z 11010KT 10SM FEW030 23/17 A3023

Decode

TAF

Not found

Destination Runways

ID Width Length Bearing (true) Bearing (mag) Surface Threshold Offset Overrun Length
05 150 ft / 46 m 6,283 ft / 1,915 m 44.19° 51.03° Asphalt 696 ft / 212 m 0 ft / 0 m
23 150 ft / 46 m 6,283 ft / 1,915 m 224.19° 231.03° Asphalt 378 ft / 115 m 0 ft / 0 m